createdAt,value
2023-02-07T00:03:47.115Z,28.40
2023-02-07T00:08:49.921Z,23.23
2023-02-07T00:13:55.059Z,30.80
2023-02-07T00:18:59.735Z,20.83
2023-02-07T00:24:02.051Z,22.77
2023-02-07T00:29:04.619Z,25.03
2023-02-07T00:34:08.318Z,16.17
2023-02-07T00:39:15.130Z,18.20
2023-02-07T00:44:17.062Z,21.13
2023-02-07T00:49:20.566Z,25.07
2023-02-07T00:54:22.816Z,21.67
2023-02-07T00:59:27.531Z,23.63
2023-02-07T01:04:29.659Z,25.63
2023-02-07T01:09:31.880Z,27.90
2023-02-07T01:14:33.972Z,26.83
2023-02-07T01:19:36.802Z,21.87
2023-02-07T01:24:38.943Z,24.00
2023-02-07T01:29:41.132Z,23.27
2023-02-07T01:34:43.147Z,28.87
2023-02-07T01:39:46.929Z,36.13
2023-02-07T01:44:48.813Z,31.67
2023-02-07T01:49:55.563Z,27.90
2023-02-07T01:55:06.802Z,23.53
2023-02-07T02:00:14.496Z,29.27
2023-02-07T02:05:19.251Z,30.67
2023-02-07T02:10:25.096Z,32.47
2023-02-07T02:15:44.215Z,31.07
2023-02-07T02:21:05.063Z,27.07
2023-02-07T02:26:39.301Z,32.30
2023-02-07T02:32:08.733Z,23.50
2023-02-07T02:37:31.951Z,31.40
2023-02-07T02:42:45.244Z,22.07
2023-02-07T02:47:49.863Z,30.20
2023-02-07T02:52:52.351Z,34.10
2023-02-07T02:58:38.599Z,23.77
2023-02-07T03:04:09.012Z,31.97
2023-02-07T03:09:29.628Z,25.43
2023-02-07T03:14:44.958Z,23.13
2023-02-07T03:19:55.435Z,24.63
2023-02-07T03:24:59.827Z,24.57
2023-02-07T03:30:10.936Z,20.20
2023-02-07T03:35:19.310Z,21.60
2023-02-07T03:40:22.877Z,26.63
2023-02-07T03:45:25.234Z,20.53
2023-02-07T03:50:27.377Z,17.90
2023-02-07T03:55:29.410Z,16.97
2023-02-07T04:00:31.195Z,21.80
2023-02-07T04:05:32.969Z,15.70
2023-02-07T04:10:34.839Z,18.63
2023-02-07T04:15:37.124Z,19.20
2023-02-07T04:20:39.114Z,26.00
2023-02-07T04:25:40.919Z,20.10
2023-02-07T04:30:42.829Z,22.93
2023-02-07T04:35:44.587Z,23.37
2023-02-07T04:40:46.552Z,28.17
2023-02-07T04:45:48.708Z,21.67
2023-02-07T04:50:50.713Z,18.83
2023-02-07T04:55:53.997Z,19.73
2023-02-07T05:00:56.029Z,16.67
2023-02-07T05:05:58.060Z,19.10
2023-02-07T05:11:00.224Z,18.83
2023-02-07T05:16:04.336Z,17.33
2023-02-07T05:21:06.362Z,12.13
2023-02-07T05:26:08.641Z,14.70
2023-02-07T05:31:10.807Z,18.40
2023-02-07T05:36:12.638Z,17.23
2023-02-07T05:41:14.470Z,21.00
2023-02-07T05:46:16.573Z,18.67
2023-02-07T05:51:18.918Z,13.80
2023-02-07T05:56:20.735Z,19.10
2023-02-07T06:01:22.580Z,11.13
2023-02-07T06:06:24.510Z,18.23
2023-02-07T06:11:26.430Z,14.63
2023-02-07T06:16:28.489Z,14.07
2023-02-07T06:21:45.285Z,14.67
2023-02-07T06:26:47.490Z,19.07
2023-02-07T06:31:49.621Z,18.87
2023-02-07T06:36:51.659Z,18.03
2023-02-07T06:41:53.486Z,14.27
2023-02-07T06:46:55.347Z,21.27
2023-02-07T06:51:57.169Z,22.47
2023-02-07T06:57:00.318Z,19.43
2023-02-07T07:02:03.632Z,19.00
2023-02-07T07:07:05.767Z,23.27
2023-02-07T07:12:08.041Z,22.47
2023-02-07T07:17:10.059Z,21.07
2023-02-07T07:22:12.263Z,24.57
2023-02-07T07:27:14.158Z,15.03
2023-02-07T07:32:28.698Z,19.43
2023-02-07T07:37:35.217Z,20.43
2023-02-07T07:42:38.218Z,28.10
2023-02-07T07:47:53.740Z,23.13
2023-02-07T07:52:55.653Z,17.80
2023-02-07T07:57:57.632Z,13.40
2023-02-07T08:02:59.962Z,18.43
2023-02-07T08:08:01.763Z,27.13
2023-02-07T08:13:03.865Z,17.27
2023-02-07T08:18:06.205Z,15.13
2023-02-07T08:23:08.054Z,16.80
2023-02-07T08:28:10.496Z,17.60
2023-02-07T08:33:12.370Z,24.13
2023-02-07T08:38:14.156Z,19.77
2023-02-07T08:43:16.352Z,24.53
2023-02-07T08:48:18.692Z,17.23
2023-02-07T08:53:20.564Z,25.63
2023-02-07T08:58:22.628Z,23.73
2023-02-07T09:03:24.474Z,19.40
2023-02-07T09:08:26.590Z,21.60
2023-02-07T09:13:28.626Z,31.30
2023-02-07T09:18:31.025Z,28.80
2023-02-07T09:23:33.542Z,25.30
2023-02-07T09:28:35.986Z,31.63
2023-02-07T09:33:38.115Z,30.70
2023-02-07T09:38:40.132Z,29.37
2023-02-07T09:43:51.526Z,26.77
2023-02-07T09:49:10.108Z,29.57
2023-02-07T09:54:25.053Z,28.30
2023-02-07T09:59:38.897Z,21.77
2023-02-07T10:04:47.251Z,28.13
2023-02-07T10:09:49.286Z,26.07
2023-02-07T10:15:41.529Z,22.73
2023-02-07T10:20:59.509Z,22.27
2023-02-07T10:26:30.107Z,16.20
2023-02-07T10:31:36.255Z,15.90
2023-02-07T10:36:43.123Z,16.87
2023-02-07T10:41:45.659Z,15.70
2023-02-07T10:46:55.278Z,12.50
2023-02-07T10:51:59.805Z,12.67
2023-02-07T10:57:02.824Z,42.23
2023-02-07T11:02:31.687Z,118.30
2023-02-07T11:07:42.836Z,37.37
2023-02-07T11:12:54.463Z,39.83
2023-02-07T11:17:57.550Z,42.50
2023-02-07T11:23:00.104Z,40.27
2023-02-07T11:28:02.230Z,22.77
2023-02-07T11:33:10.162Z,17.03
2023-02-07T11:38:15.499Z,13.37
2023-02-07T11:43:22.046Z,13.20
2023-02-07T11:48:31.187Z,12.77
2023-02-07T11:53:33.119Z,11.73
2023-02-07T11:58:39.794Z,10.10
2023-02-07T12:03:46.021Z,8.70
2023-02-07T12:08:49.646Z,9.93
2023-02-07T12:13:59.469Z,9.43
2023-02-07T12:19:10.455Z,7.80
2023-02-07T12:24:45.118Z,7.87
2023-02-07T12:30:24.705Z,4.40
2023-02-07T12:35:51.943Z,4.87
2023-02-07T12:41:22.363Z,6.70
2023-02-07T12:46:58.828Z,5.77
2023-02-07T12:52:19.126Z,5.97
2023-02-07T12:57:30.608Z,8.27
2023-02-07T13:03:13.082Z,5.73
2023-02-07T13:08:18.019Z,5.97
2023-02-07T13:13:23.417Z,5.63
2023-02-07T13:19:03.799Z,4.77
2023-02-07T13:24:08.537Z,7.10
2023-02-07T13:29:15.708Z,7.50
2023-02-07T13:34:35.432Z,4.53
2023-02-07T13:39:52.724Z,5.60
2023-02-07T13:45:19.474Z,6.90
2023-02-07T13:50:40.955Z,7.23
2023-02-07T13:55:43.848Z,6.40
2023-02-07T14:00:48.047Z,4.83
2023-02-07T14:05:52.363Z,8.30
2023-02-07T14:10:57.461Z,6.60
2023-02-07T14:16:08.965Z,8.67
2023-02-07T14:21:20.096Z,6.20
2023-02-07T14:26:40.430Z,6.33
2023-02-07T14:31:58.891Z,7.43
2023-02-07T14:37:18.974Z,7.03
2023-02-07T14:42:22.529Z,8.53
2023-02-07T14:47:28.295Z,7.43
2023-02-07T14:52:35.360Z,6.90
2023-02-07T14:57:56.602Z,9.23
2023-02-07T15:03:05.302Z,9.67
2023-02-07T15:08:15.994Z,6.73
2023-02-07T15:13:23.754Z,6.70
2023-02-07T15:18:30.233Z,8.70
2023-02-07T15:23:32.997Z,7.97
2023-02-07T15:28:35.300Z,9.17
2023-02-07T15:33:47.731Z,8.20
2023-02-07T15:38:50.091Z,8.53
2023-02-07T15:44:07.707Z,6.83
2023-02-07T15:49:09.611Z,7.83
2023-02-07T15:54:16.881Z,7.23
2023-02-07T15:59:22.538Z,8.67
2023-02-07T16:04:29.676Z,5.60
2023-02-07T16:09:37.551Z,9.33
2023-02-07T16:14:40.859Z,7.13
2023-02-07T16:19:46.357Z,8.03
2023-02-07T16:24:49.846Z,8.20
2023-02-07T16:29:53.587Z,8.70
2023-02-07T16:34:59.967Z,6.70
2023-02-07T16:40:02.018Z,7.40
2023-02-07T16:45:04.222Z,11.47
2023-02-07T16:50:13.514Z,10.63
2023-02-07T16:55:17.057Z,16.57
2023-02-07T17:00:22.297Z,15.83
2023-02-07T17:05:27.127Z,9.33
2023-02-07T17:10:32.387Z,11.93
2023-02-07T17:15:35.787Z,19.50
2023-02-07T17:20:38.747Z,15.73
2023-02-07T17:25:42.167Z,19.03
2023-02-07T17:30:46.351Z,18.27
2023-02-07T17:35:48.301Z,21.10
2023-02-07T17:40:50.177Z,16.57
2023-02-07T17:45:51.990Z,19.73
2023-02-07T17:50:56.007Z,22.77
2023-02-07T17:55:58.798Z,18.13
2023-02-07T18:01:00.765Z,11.70
2023-02-07T18:06:02.650Z,12.10
2023-02-07T18:11:07.229Z,10.87
2023-02-07T18:16:12.893Z,11.53
2023-02-07T18:21:17.049Z,12.33
2023-02-07T18:26:19.678Z,13.50
2023-02-07T18:31:24.058Z,13.50
2023-02-07T18:36:26.826Z,14.37
2023-02-07T18:41:28.790Z,10.33
2023-02-07T18:46:33.054Z,14.57
2023-02-07T18:51:37.053Z,11.80
2023-02-07T18:56:41.243Z,10.83
2023-02-07T19:01:43.734Z,13.93
2023-02-07T19:06:46.134Z,11.17
2023-02-07T19:11:51.456Z,14.77
2023-02-07T19:16:55.738Z,12.63
2023-02-07T19:22:00.340Z,13.20
2023-02-07T19:27:02.146Z,18.67
2023-02-07T19:32:07.412Z,17.57
2023-02-07T19:37:11.641Z,15.70
2023-02-07T19:42:13.500Z,15.50
2023-02-07T19:47:15.271Z,13.70
2023-02-07T19:52:19.007Z,14.50
2023-02-07T19:57:23.060Z,15.47
2023-02-07T20:02:24.840Z,19.43
2023-02-07T20:07:26.646Z,20.10
2023-02-07T20:12:28.688Z,21.37
2023-02-07T20:17:30.715Z,19.60
2023-02-07T20:22:33.906Z,18.03
2023-02-07T20:27:35.614Z,18.43
2023-02-07T20:32:37.609Z,17.13
2023-02-07T20:37:39.495Z,20.63
2023-02-07T20:42:41.456Z,26.07
2023-02-07T20:47:43.742Z,19.07
2023-02-07T20:52:45.624Z,25.20
2023-02-07T20:57:47.538Z,22.47
2023-02-07T21:02:49.319Z,25.13
2023-02-07T21:07:51.134Z,15.93
2023-02-07T21:12:53.042Z,22.63
2023-02-07T21:17:54.797Z,17.47
2023-02-07T21:22:56.736Z,22.17
2023-02-07T21:27:58.684Z,21.80
2023-02-07T21:33:01.360Z,20.53
2023-02-07T21:38:03.386Z,15.60
2023-02-07T21:43:05.193Z,19.13
2023-02-07T21:48:09.355Z,23.03
2023-02-07T21:53:11.332Z,19.03
2023-02-07T21:58:23.046Z,21.97
2023-02-07T22:03:24.873Z,16.30
2023-02-07T22:08:26.741Z,15.70
2023-02-07T22:13:30.917Z,26.00
2023-02-07T22:18:33.041Z,23.07
2023-02-07T22:23:37.281Z,23.67
2023-02-07T22:28:41.023Z,21.50
2023-02-07T22:33:43.274Z,24.60
2023-02-07T22:38:45.317Z,21.83
2023-02-07T22:43:50.398Z,22.03
2023-02-07T22:48:52.603Z,27.50
2023-02-07T22:53:59.284Z,24.83
2023-02-07T22:59:01.311Z,24.00
2023-02-07T23:04:05.518Z,20.47
2023-02-07T23:09:10.276Z,23.90
2023-02-07T23:14:12.727Z,21.33
2023-02-07T23:19:16.696Z,21.40
2023-02-07T23:24:18.734Z,22.77
2023-02-07T23:29:20.602Z,29.93
2023-02-07T23:34:29.877Z,29.00
2023-02-07T23:39:31.683Z,25.37
2023-02-07T23:44:33.575Z,21.57
2023-02-07T23:49:35.337Z,25.13
2023-02-07T23:54:37.446Z,27.00
2023-02-07T23:59:39.322Z,28.33
